Архив погоды в Лукоянове

Метеограмма Лукоянов
Вторник, 14 Августа
Время местн. Темп Ветер Видим Явления Облачность нижн/средн/верх Атм. давл. Влжн Точка росы ВНГО R Сост. почвы Tg s
Напр Скр Прв ур.ст ур.м изм
15:00 +23° З,С-З 4 7 20 км - переменная облачность 742 761 +0.2 34% +6.4° 1.5 км - - - -
12:00 +20.1° З 4 8 20 км - облачно с прояснениями 742 761 +0.4 47% +8.6° 1.5 км - - - -
09:00 +17.6° З 3 5 20 км - переменная облачность 741 761 +1 61% +10° - - - - -
06:00 +13.5° З 1 3 10 км - облачно 740 760 +0.5 74% +8.9° более 2.5 км - Влажная (без луж) - -
03:00 +14.3° З 1 3 10 км - облачно 740 759 +0.3 68% +8.4° 1 км - - - -
00:00 +15.7° З 1 3 10 км - облачно 740 759 +0.5 61% +8.2° более 2.5 км - - - -
Понедельник, 13 Августа
Время местн. Темп Ветер Видим Явления Облачность нижн/средн/верх Атм. давл. Влжн Точка росы ВНГО R Сост. почвы Tg s
Напр Скр Прв ур.ст ур.м изм
21:00 +17.8° З 2 5 10 км - облачно 739 758 +0.5 53% +8.2° более 2.5 км - - - -
18:00 +22.6° З 3 6 20 км - облачно с прояснениями 739 757 -0.3 35% +6.4° более 2.5 км - - - -
15:00 +25.6° З 3 7 20 км - переменная облачность 739 757 -0.7 31% +7° 1.5 км - - - -
12:00 +24.6° З 4 7 20 км - переменная облачность 740 758 -0.4 38% +9.2° 1.5 км - - - -
09:00 +20.5° З,С-З 2 5 20 км - переменная облачность 740 759 0 57% +11.7° 1.5 км - - - -
06:00 +16° З 1 2 20 км - переменная облачность 740 759 +0.2 76% +11.8° более 2.5 км - Влажная (без луж) - -
03:00 +16.4° З 1 2 10 км - ясно 740 759 -0.5 72% +11.4° более 2.5 км - - - -
00:00 +19° Ю 1 2 10 км - ясно 740 759 -0.8 60% +11.1° более 2.5 км - - - -
Воскресенье, 12 Августа
Время местн. Темп Ветер Видим Явления Облачность нижн/средн/верх Атм. давл. Влжн Точка росы ВНГО R Сост. почвы Tg s
Напр Скр Прв ур.ст ур.м изм
21:00 +20.4° Ю-З 1 2 10 км - ясно 741 760 -0.5 53% +10.5° более 2.5 км - - - -
18:00 +27.1° З,Ю-З 3 6 20 км - ясно 741 760 -1.1 29% +7.6° более 2.5 км - - - -
15:00 +28.2° З 2 5 20 км - ясно 743 761 -1.1 28% +8° более 2.5 км - - - -
12:00 +26.9° З,Ю-З 3 7 20 км - ясно 744 762 -0.8 31% +8.5° более 2.5 км - - - -
09:00 +22.7° З,Ю-З 1 3 20 км - ясно 744 763 -0.8 54% +13° более 2.5 км - - - -
06:00 +15° З 1 2 20 км - ясно 745 765 -0.2 74% +10.4° более 2.5 км - Влажная (без луж) - -
03:00 +14.7° З 2 2 10 км - ясно 745 765 -0.4 77% +10.7° более 2.5 км - - - -
00:00 +15.9° З 1 2 10 км - ясно 746 765 -0.3 73% +11.1° более 2.5 км - - - -
Суббота, 11 Августа
Время местн. Темп Ветер Видим Явления Облачность нижн/средн/верх Атм. давл. Влжн Точка росы ВНГО R Сост. почвы Tg s
Напр Скр Прв ур.ст ур.м изм
21:00 +18.8° З 1 2 10 км - ясно 746 765 +0.2 63% +11.5° более 2.5 км - - - -
18:00 +27° З 3 7 20 км - ясно 746 765 -1.1 30% +8° более 2.5 км - - - -
15:00 +27.8° З 4 8 20 км - ясно 747 766 -1.1 31% +9.2° более 2.5 км - - - -
12:00 +26.8° З 4 8 20 км - переменная облачность 748 767 -0.8 41% +12.5° 1.5 км - - - -